createdAt,value
2019-01-27T00:01:42.585Z,16.70
2019-01-27T00:04:14.194Z,16.80
2019-01-27T00:06:45.683Z,16.80
2019-01-27T00:09:17.486Z,16.80
2019-01-27T00:11:49.368Z,16.60
2019-01-27T00:14:20.895Z,16.40
2019-01-27T00:16:52.387Z,16.60
2019-01-27T00:19:24.213Z,16.50
2019-01-27T00:21:55.919Z,16.50
2019-01-27T00:24:27.734Z,16.70
2019-01-27T00:26:59.275Z,16.60
2019-01-27T00:29:30.785Z,16.70
2019-01-27T00:32:02.325Z,17.00
2019-01-27T00:34:33.806Z,17.10
2019-01-27T00:37:05.261Z,17.10
2019-01-27T00:39:37.048Z,16.90
2019-01-27T00:42:08.585Z,17.50
2019-01-27T00:44:40.038Z,16.80
2019-01-27T00:47:11.535Z,16.60
2019-01-27T00:49:44.271Z,16.70
2019-01-27T00:52:15.750Z,17.00
2019-01-27T00:54:47.591Z,17.30
2019-01-27T00:57:19.086Z,17.30
2019-01-27T00:59:50.527Z,17.30
2019-01-27T01:02:22.046Z,17.00
2019-01-27T01:04:53.493Z,17.00
2019-01-27T01:07:24.991Z,17.00
2019-01-27T01:09:56.688Z,17.20
2019-01-27T01:12:28.591Z,17.00
2019-01-27T01:15:00.042Z,17.20
2019-01-27T01:17:31.617Z,17.30
2019-01-27T01:20:03.081Z,17.00
2019-01-27T01:22:34.547Z,16.80
2019-01-27T01:25:11.299Z,16.80
2019-01-27T01:27:42.806Z,16.70
2019-01-27T01:30:16.769Z,16.60
2019-01-27T01:32:48.248Z,16.60
2019-01-27T01:35:19.744Z,16.30
2019-01-27T01:37:51.314Z,16.50
2019-01-27T01:40:23.182Z,16.60
2019-01-27T01:42:54.748Z,16.30
2019-01-27T01:45:32.542Z,16.30
2019-01-27T01:48:04.546Z,16.00
2019-01-27T01:50:36.001Z,16.10
2019-01-27T01:53:07.458Z,15.90
2019-01-27T01:55:38.977Z,16.30
2019-01-27T01:58:10.499Z,16.10
2019-01-27T02:00:42.086Z,16.20
2019-01-27T02:03:13.550Z,16.20
2019-01-27T02:05:45.046Z,16.10
2019-01-27T02:08:16.479Z,16.20
2019-01-27T02:10:48.245Z,16.50
2019-01-27T02:13:19.930Z,16.80
2019-01-27T02:16:10.830Z,16.60
2019-01-27T02:18:42.688Z,16.60
2019-01-27T02:21:14.216Z,16.70
2019-01-27T02:23:45.666Z,16.40
2019-01-27T02:26:17.350Z,16.60
2019-01-27T02:28:48.830Z,17.00
2019-01-27T02:31:22.359Z,17.20
2019-01-27T02:33:53.835Z,17.60
2019-01-27T02:36:25.407Z,17.50
2019-01-27T02:38:56.911Z,17.50
2019-01-27T02:41:28.666Z,17.40
2019-01-27T02:44:00.165Z,17.50
2019-01-27T02:46:32.792Z,17.60
2019-01-27T02:49:04.625Z,17.50
2019-01-27T02:51:36.090Z,17.50
2019-01-27T02:54:07.564Z,17.60
2019-01-27T02:56:39.231Z,17.60
2019-01-27T02:59:11.952Z,17.60
2019-01-27T03:01:43.446Z,17.50
2019-01-27T03:04:14.902Z,17.50
2019-01-27T03:07:05.216Z,17.30
2019-01-27T03:09:40.126Z,17.30
2019-01-27T03:12:11.811Z,17.60
2019-01-27T03:14:43.610Z,17.60
2019-01-27T03:17:16.678Z,17.50
2019-01-27T03:19:48.174Z,17.60
2019-01-27T03:22:19.616Z,17.80
2019-01-27T03:24:51.103Z,17.80
2019-01-27T03:27:22.853Z,17.70
2019-01-27T03:29:54.373Z,18.00
2019-01-27T03:32:25.803Z,18.20
2019-01-27T03:34:57.290Z,18.20
2019-01-27T03:37:28.784Z,18.10
2019-01-27T03:40:00.301Z,18.00
2019-01-27T03:42:32.070Z,18.00
2019-01-27T03:45:03.551Z,18.20
2019-01-27T03:47:35.001Z,18.00
2019-01-27T03:50:09.703Z,18.00
2019-01-27T03:52:41.132Z,17.80
2019-01-27T03:55:16.392Z,17.60
2019-01-27T03:57:48.075Z,17.70
2019-01-27T04:00:21.428Z,17.70
2019-01-27T04:02:52.877Z,17.70
2019-01-27T04:05:24.332Z,17.50
2019-01-27T04:07:55.839Z,17.50
2019-01-27T04:10:27.261Z,17.40
2019-01-27T04:12:58.991Z,17.90
2019-01-27T04:15:30.500Z,17.80
2019-01-27T04:18:01.991Z,17.70
2019-01-27T04:20:33.436Z,18.10
2019-01-27T04:23:04.888Z,18.10
2019-01-27T04:25:36.395Z,17.90
2019-01-27T04:28:08.166Z,17.80
2019-01-27T04:30:39.622Z,18.10
2019-01-27T04:33:11.100Z,18.30
2019-01-27T04:35:42.551Z,18.50
2019-01-27T04:38:14.030Z,18.60
2019-01-27T04:40:45.473Z,18.50
2019-01-27T04:43:17.189Z,17.90
2019-01-27T04:45:48.635Z,18.40
2019-01-27T04:48:20.149Z,18.30
2019-01-27T04:50:51.639Z,18.80
2019-01-27T04:53:23.199Z,18.80
2019-01-27T04:55:54.667Z,18.50
2019-01-27T04:58:26.404Z,19.00
2019-01-27T05:00:57.927Z,19.50
2019-01-27T05:03:44.410Z,19.80
2019-01-27T05:06:15.853Z,20.00
2019-01-27T05:08:47.342Z,20.00
2019-01-27T05:11:19.943Z,20.30
2019-01-27T05:13:51.662Z,20.30
2019-01-27T05:16:23.253Z,19.80
2019-01-27T05:18:54.844Z,19.50
2019-01-27T05:21:26.310Z,19.40
2019-01-27T05:23:57.787Z,19.60
2019-01-27T05:26:29.214Z,19.90
2019-01-27T05:29:00.671Z,19.60
2019-01-27T05:31:32.176Z,19.50
2019-01-27T05:34:03.612Z,19.40
2019-01-27T05:36:35.071Z,19.60
2019-01-27T05:39:09.386Z,19.50
2019-01-27T05:41:40.867Z,19.40
2019-01-27T05:44:12.638Z,19.40
2019-01-27T05:46:44.081Z,19.00
2019-01-27T05:49:15.603Z,19.40
2019-01-27T05:51:47.042Z,19.70
2019-01-27T05:54:20.177Z,19.40
2019-01-27T05:56:56.518Z,18.80
2019-01-27T05:59:25.298Z,18.10
2019-01-27T06:01:56.766Z,18.00
2019-01-27T06:04:28.262Z,18.10
2019-01-27T06:06:59.702Z,19.00
2019-01-27T06:09:31.190Z,19.20
2019-01-27T06:12:02.614Z,19.30
2019-01-27T06:14:34.390Z,19.70
2019-01-27T06:17:06.124Z,19.40
2019-01-27T06:19:37.592Z,19.80
2019-01-27T06:22:09.033Z,20.00
2019-01-27T06:24:40.533Z,20.00
2019-01-27T06:27:12.014Z,19.90
2019-01-27T06:29:43.552Z,20.00
2019-01-27T06:32:28.074Z,20.00
2019-01-27T06:35:01.252Z,20.10
2019-01-27T06:37:32.703Z,20.70
2019-01-27T06:40:04.239Z,20.50
2019-01-27T06:42:36.781Z,20.70
2019-01-27T06:45:08.562Z,21.10
2019-01-27T06:47:40.094Z,20.50
2019-01-27T06:50:11.935Z,20.20
2019-01-27T06:52:43.409Z,20.80
2019-01-27T06:55:15.950Z,21.50
2019-01-27T06:57:47.445Z,21.70
2019-01-27T07:00:39.390Z,22.10
2019-01-27T07:03:16.044Z,21.90
2019-01-27T07:05:53.820Z,21.70
2019-01-27T07:08:36.207Z,21.60
2019-01-27T07:11:28.886Z,21.20
2019-01-27T07:14:17.917Z,21.10
2019-01-27T07:17:11.367Z,20.80
2019-01-27T07:20:11.012Z,20.30
2019-01-27T07:23:00.064Z,20.40
2019-01-27T07:25:53.287Z,20.50
2019-01-27T07:28:34.964Z,20.70
2019-01-27T07:31:25.343Z,20.50
2019-01-27T07:34:24.508Z,20.40
2019-01-27T07:37:21.173Z,21.20
2019-01-27T07:40:20.464Z,20.40
2019-01-27T07:43:16.679Z,20.20
2019-01-27T07:46:10.550Z,20.10
2019-01-27T07:48:59.971Z,20.10
2019-01-27T07:51:48.552Z,19.80
2019-01-27T07:54:29.976Z,20.20
2019-01-27T07:57:29.667Z,20.90
2019-01-27T08:00:21.853Z,20.90
2019-01-27T08:03:17.991Z,21.00
2019-01-27T08:06:07.279Z,21.20
2019-01-27T08:09:00.462Z,21.40
2019-01-27T08:11:59.857Z,21.50
2019-01-27T08:14:38.576Z,21.20
2019-01-27T08:17:34.967Z,20.90
2019-01-27T08:20:27.891Z,20.80
2019-01-27T08:23:10.838Z,20.70
2019-01-27T08:25:47.492Z,20.50
2019-01-27T08:28:40.825Z,20.60
2019-01-27T08:31:24.181Z,20.40
2019-01-27T08:34:26.758Z,20.90
2019-01-27T08:37:09.143Z,20.90
2019-01-27T08:39:50.422Z,21.20
2019-01-27T08:42:39.395Z,21.00
2019-01-27T08:45:15.407Z,21.00
2019-01-27T08:47:47.307Z,20.50
2019-01-27T08:50:19.941Z,20.60
2019-01-27T08:52:51.491Z,20.80
2019-01-27T08:55:23.208Z,21.40
2019-01-27T08:57:54.918Z,21.20
2019-01-27T09:00:36.611Z,21.40
2019-01-27T09:03:17.198Z,21.50
2019-01-27T09:06:07.589Z,21.50
2019-01-27T09:08:50.644Z,22.20
2019-01-27T09:11:53.169Z,22.00
2019-01-27T09:14:43.569Z,22.50
2019-01-27T09:17:35.917Z,22.80
2019-01-27T09:20:46.708Z,23.00
2019-01-27T09:23:33.899Z,22.50
2019-01-27T09:26:32.932Z,21.90
2019-01-27T09:29:17.405Z,22.70
2019-01-27T09:31:59.820Z,22.90
2019-01-27T09:34:41.992Z,22.50
2019-01-27T09:37:32.411Z,21.80
2019-01-27T09:40:21.425Z,21.90
2019-01-27T09:43:18.972Z,21.90
2019-01-27T09:46:16.945Z,21.30
2019-01-27T09:48:58.828Z,21.10
2019-01-27T09:51:55.463Z,21.60
2019-01-27T09:54:52.158Z,21.90
2019-01-27T09:57:42.521Z,22.10
2019-01-27T10:00:54.814Z,21.80
2019-01-27T10:03:43.869Z,22.80
2019-01-27T10:06:39.951Z,23.20
2019-01-27T10:09:43.465Z,22.40
2019-01-27T10:12:38.490Z,21.60
2019-01-27T10:15:39.835Z,20.90
2019-01-27T10:18:22.100Z,20.70
2019-01-27T10:21:15.729Z,20.90
2019-01-27T10:23:55.666Z,21.30
2019-01-27T10:26:49.244Z,21.50
2019-01-27T10:29:29.061Z,22.30
2019-01-27T10:32:09.576Z,22.70
2019-01-27T10:35:00.440Z,22.70
2019-01-27T10:37:56.928Z,22.50
2019-01-27T10:40:53.371Z,22.00
2019-01-27T10:43:34.719Z,22.30
2019-01-27T10:46:40.383Z,22.30
2019-01-27T10:49:33.830Z,22.10
2019-01-27T10:52:14.591Z,22.20
2019-01-27T10:55:05.015Z,22.20
2019-01-27T10:57:58.459Z,22.10
2019-01-27T11:00:51.701Z,22.10
2019-01-27T11:03:43.881Z,21.80
2019-01-27T11:06:32.889Z,21.90
2019-01-27T11:09:23.808Z,22.10
2019-01-27T11:12:13.410Z,22.30
2019-01-27T11:15:13.441Z,22.30
2019-01-27T11:18:02.755Z,21.70
2019-01-27T11:20:51.693Z,21.60
2019-01-27T11:23:42.383Z,22.10
2019-01-27T11:26:35.705Z,22.40
2019-01-27T11:29:22.054Z,22.30
2019-01-27T11:32:17.452Z,21.70
2019-01-27T11:35:06.714Z,21.30
2019-01-27T11:38:01.887Z,21.80
2019-01-27T11:40:40.613Z,21.20
2019-01-27T11:43:29.512Z,22.10
2019-01-27T11:46:18.741Z,22.10
2019-01-27T11:48:54.831Z,22.50
2019-01-27T11:51:39.975Z,22.00
2019-01-27T11:54:11.443Z,22.10
2019-01-27T11:56:43.020Z,22.20
2019-01-27T11:59:14.492Z,22.60
2019-01-27T12:01:46.041Z,22.60
2019-01-27T12:04:17.506Z,23.10
2019-01-27T12:06:48.999Z,23.00
2019-01-27T12:09:20.503Z,22.90
2019-01-27T12:11:52.189Z,22.70
2019-01-27T12:14:23.703Z,22.90
2019-01-27T12:16:55.395Z,23.00
2019-01-27T12:19:26.923Z,23.30
2019-01-27T12:21:58.415Z,22.30
2019-01-27T12:24:29.896Z,22.90
2019-01-27T12:27:01.596Z,23.10
2019-01-27T12:29:33.218Z,22.70
2019-01-27T12:32:06.506Z,22.70
2019-01-27T12:34:38.307Z,22.90
2019-01-27T12:37:09.742Z,23.10
2019-01-27T12:39:41.516Z,23.40
2019-01-27T12:42:13.171Z,23.40
2019-01-27T12:44:44.743Z,23.30
2019-01-27T12:47:16.212Z,23.40
2019-01-27T12:49:47.695Z,23.50
2019-01-27T12:52:19.342Z,23.00
2019-01-27T12:54:52.125Z,23.20
2019-01-27T12:57:23.854Z,23.60
2019-01-27T12:59:55.349Z,23.20
2019-01-27T13:02:27.052Z,23.10
2019-01-27T13:04:58.544Z,23.20
2019-01-27T13:07:29.995Z,23.00
2019-01-27T13:10:01.520Z,23.70
2019-01-27T13:12:33.119Z,23.50
2019-01-27T13:15:05.217Z,23.70
2019-01-27T13:17:36.652Z,23.50
2019-01-27T13:20:09.749Z,23.70
2019-01-27T13:22:41.222Z,23.50
2019-01-27T13:25:14.889Z,23.60
2019-01-27T13:27:46.486Z,24.60
2019-01-27T13:30:20.734Z,24.30
2019-01-27T13:32:52.258Z,24.10
2019-01-27T13:35:23.740Z,24.00
2019-01-27T13:37:55.265Z,23.50
2019-01-27T13:40:26.853Z,23.20
2019-01-27T13:42:58.787Z,23.10
2019-01-27T13:45:30.373Z,23.20
2019-01-27T13:48:01.868Z,22.60
2019-01-27T13:50:33.424Z,22.60
2019-01-27T13:53:05.215Z,22.70
2019-01-27T13:55:36.696Z,23.10
2019-01-27T13:58:08.488Z,23.10
2019-01-27T14:00:40.495Z,23.90
2019-01-27T14:03:13.238Z,23.70
2019-01-27T14:05:44.701Z,23.00
2019-01-27T14:08:16.248Z,22.40
2019-01-27T14:10:47.684Z,22.00
2019-01-27T14:13:19.408Z,21.60
2019-01-27T14:15:50.983Z,21.40
2019-01-27T14:18:22.417Z,21.60
2019-01-27T14:20:53.883Z,21.70
2019-01-27T14:23:25.364Z,22.40
2019-01-27T14:25:56.843Z,22.10
2019-01-27T14:28:29.447Z,21.50
2019-01-27T14:31:01.434Z,21.50
2019-01-27T14:33:32.899Z,21.70
2019-01-27T14:36:04.419Z,22.10
2019-01-27T14:38:35.880Z,21.90
2019-01-27T14:41:07.780Z,21.40
2019-01-27T14:43:39.549Z,21.30
2019-01-27T14:46:11.059Z,21.20
2019-01-27T14:48:43.538Z,21.60
2019-01-27T14:51:15.069Z,22.00
2019-01-27T14:53:46.573Z,21.90
2019-01-27T14:56:18.086Z,22.30
2019-01-27T14:58:50.270Z,22.60
2019-01-27T15:01:21.792Z,22.30
2019-01-27T15:03:53.254Z,22.50
2019-01-27T15:06:24.828Z,22.50
2019-01-27T15:08:56.320Z,22.10
2019-01-27T15:11:27.802Z,21.40
2019-01-27T15:13:59.465Z,21.30
2019-01-27T15:16:30.978Z,21.70
2019-01-27T15:19:02.616Z,21.70
2019-01-27T15:21:34.114Z,21.20
2019-01-27T15:24:05.608Z,21.10
2019-01-27T15:26:37.069Z,20.60
2019-01-27T15:29:08.856Z,20.60
2019-01-27T15:31:40.332Z,20.70
2019-01-27T15:34:13.024Z,20.80
2019-01-27T15:36:44.462Z,20.60
2019-01-27T15:39:16.002Z,20.70
2019-01-27T15:41:47.479Z,21.30
2019-01-27T15:44:19.008Z,21.10
2019-01-27T15:46:50.575Z,21.40
2019-01-27T15:49:22.110Z,21.40
2019-01-27T15:51:53.651Z,21.50
2019-01-27T15:54:25.214Z,21.30
2019-01-27T15:56:56.694Z,21.40
2019-01-27T15:59:28.211Z,21.40
2019-01-27T16:01:59.721Z,21.30
2019-01-27T16:04:31.219Z,21.20
2019-01-27T16:07:02.720Z,21.50
2019-01-27T16:09:34.421Z,21.70
2019-01-27T16:12:05.890Z,21.60
2019-01-27T16:14:37.596Z,21.20
2019-01-27T16:17:09.290Z,21.30
2019-01-27T16:19:40.812Z,20.70
2019-01-27T16:22:12.302Z,21.30
2019-01-27T16:24:44.305Z,21.20
2019-01-27T16:27:15.828Z,20.90
2019-01-27T16:30:09.111Z,21.50
2019-01-27T16:32:42.257Z,21.50
2019-01-27T16:35:18.871Z,21.70
2019-01-27T16:37:50.381Z,21.60
2019-01-27T16:40:21.895Z,21.10
2019-01-27T16:42:53.443Z,21.00
2019-01-27T16:45:25.210Z,20.90
2019-01-27T16:47:56.835Z,20.70
2019-01-27T16:50:28.414Z,20.60
2019-01-27T16:52:59.957Z,20.60
2019-01-27T16:55:31.717Z,20.80
2019-01-27T16:58:03.314Z,21.10
2019-01-27T17:00:34.925Z,21.20
2019-01-27T17:03:06.712Z,21.50
2019-01-27T17:05:38.241Z,21.60
2019-01-27T17:08:09.794Z,21.50
2019-01-27T17:10:41.371Z,21.80
2019-01-27T17:13:12.894Z,21.80
2019-01-27T17:15:44.925Z,21.50
2019-01-27T17:18:16.461Z,21.50
2019-01-27T17:20:47.986Z,21.40
2019-01-27T17:23:19.495Z,21.40
2019-01-27T17:25:53.580Z,21.00
2019-01-27T17:28:24.396Z,21.10
2019-01-27T17:30:56.575Z,21.20
2019-01-27T17:33:29.530Z,21.20
2019-01-27T17:36:01.090Z,21.10
2019-01-27T17:38:40.240Z,20.90
2019-01-27T17:41:06.935Z,21.20
2019-01-27T17:43:38.544Z,21.10
2019-01-27T17:46:10.269Z,21.50
2019-01-27T17:48:41.836Z,21.20
2019-01-27T17:51:13.513Z,20.70
2019-01-27T17:53:54.233Z,20.30
2019-01-27T17:56:26.065Z,20.30
2019-01-27T17:59:25.459Z,20.50
2019-01-27T18:02:14.919Z,20.40
2019-01-27T18:04:51.642Z,21.00
2019-01-27T18:07:29.022Z,20.80
2019-01-27T18:10:08.555Z,20.70
2019-01-27T18:13:04.980Z,20.40
2019-01-27T18:15:36.613Z,20.40
2019-01-27T18:18:08.324Z,20.90
2019-01-27T18:20:39.824Z,21.20
2019-01-27T18:23:11.302Z,21.70
2019-01-27T18:25:42.934Z,22.10
2019-01-27T18:28:14.457Z,22.50
2019-01-27T18:30:46.060Z,22.70
2019-01-27T18:33:18.175Z,22.50
2019-01-27T18:35:49.821Z,21.70
2019-01-27T18:38:21.325Z,21.30
2019-01-27T18:40:52.884Z,21.20
2019-01-27T18:43:25.706Z,21.00
2019-01-27T18:45:57.227Z,21.00
2019-01-27T18:48:29.035Z,20.70
2019-01-27T18:51:00.518Z,20.80
2019-01-27T18:53:48.338Z,21.10
2019-01-27T18:56:29.208Z,20.90
2019-01-27T18:59:22.594Z,21.10
2019-01-27T19:02:24.934Z,21.10
2019-01-27T19:05:14.456Z,20.80
2019-01-27T19:07:58.805Z,20.30
2019-01-27T19:10:54.670Z,20.40
2019-01-27T19:13:32.903Z,20.50
2019-01-27T19:16:32.624Z,20.30
2019-01-27T19:19:14.463Z,19.80
2019-01-27T19:22:07.703Z,19.80
2019-01-27T19:25:04.189Z,19.70
2019-01-27T19:28:00.784Z,20.30
2019-01-27T19:30:49.780Z,20.70
2019-01-27T19:33:44.533Z,20.80
2019-01-27T19:36:40.662Z,20.70
2019-01-27T19:39:43.385Z,20.60
2019-01-27T19:42:22.957Z,20.80
2019-01-27T19:45:15.825Z,21.10
2019-01-27T19:47:55.679Z,21.30
2019-01-27T19:50:49.149Z,21.60
2019-01-27T19:53:39.582Z,21.50
2019-01-27T19:56:29.971Z,21.70
2019-01-27T19:59:17.101Z,21.70
2019-01-27T20:02:07.106Z,21.40
2019-01-27T20:05:12.920Z,21.10
2019-01-27T20:08:02.129Z,20.80
2019-01-27T20:10:51.427Z,20.90
2019-01-27T20:13:44.829Z,21.10
2019-01-27T20:16:25.751Z,21.50
2019-01-27T20:19:18.918Z,21.30
2019-01-27T20:22:17.065Z,21.10
2019-01-27T20:25:08.830Z,20.90
2019-01-27T20:28:11.467Z,20.80
2019-01-27T20:31:00.436Z,21.00
2019-01-27T20:33:50.821Z,21.00
2019-01-27T20:36:35.249Z,21.00
2019-01-27T20:39:16.047Z,21.10
2019-01-27T20:41:58.436Z,21.30
2019-01-27T20:44:57.973Z,21.20
2019-01-27T20:47:48.446Z,21.30
2019-01-27T20:50:42.882Z,20.90
2019-01-27T20:53:28.851Z,21.10
2019-01-27T20:56:10.550Z,21.10
2019-01-27T20:58:56.567Z,21.10
2019-01-27T21:01:58.923Z,21.30
2019-01-27T21:04:56.459Z,21.50
2019-01-27T21:07:34.290Z,20.90
2019-01-27T21:10:25.842Z,20.80
2019-01-27T21:13:16.381Z,21.00
2019-01-27T21:16:12.692Z,21.30
2019-01-27T21:18:52.117Z,22.00
2019-01-27T21:21:23.689Z,21.30
2019-01-27T21:23:55.194Z,21.10
2019-01-27T21:26:27.273Z,20.80
2019-01-27T21:28:58.755Z,20.40
2019-01-27T21:31:30.340Z,20.50
2019-01-27T21:34:01.877Z,20.20
2019-01-27T21:36:33.650Z,20.60
2019-01-27T21:39:07.131Z,20.40
2019-01-27T21:41:38.933Z,20.20
2019-01-27T21:44:10.540Z,20.00
2019-01-27T21:46:42.007Z,19.90
2019-01-27T21:49:13.487Z,19.80
2019-01-27T21:51:45.029Z,19.80
2019-01-27T21:54:16.775Z,19.50
2019-01-27T21:56:48.248Z,19.20
2019-01-27T21:59:19.795Z,19.00
2019-01-27T22:01:51.356Z,19.50
2019-01-27T22:04:22.847Z,19.50
2019-01-27T22:06:54.348Z,19.20
2019-01-27T22:09:25.943Z,19.30
2019-01-27T22:11:59.971Z,19.10
2019-01-27T22:14:31.473Z,18.80
2019-01-27T22:17:06.041Z,18.90
2019-01-27T22:19:37.636Z,19.00
2019-01-27T22:22:09.118Z,19.30
2019-01-27T22:24:40.694Z,19.20
2019-01-27T22:27:12.501Z,19.70
2019-01-27T22:29:44.021Z,19.50
2019-01-27T22:32:15.580Z,19.70
2019-01-27T22:34:47.105Z,19.80
2019-01-27T22:37:18.701Z,19.60
2019-01-27T22:39:50.255Z,19.30
2019-01-27T22:42:22.042Z,19.30
2019-01-27T22:44:53.577Z,19.10
2019-01-27T22:47:25.127Z,19.10
2019-01-27T22:49:56.672Z,19.10
2019-01-27T22:52:28.166Z,18.90
2019-01-27T22:54:59.919Z,18.70
2019-01-27T22:57:31.407Z,18.80
2019-01-27T23:00:03.490Z,19.10
2019-01-27T23:02:36.332Z,19.50
2019-01-27T23:05:09.714Z,19.70
2019-01-27T23:07:41.135Z,20.40
2019-01-27T23:10:15.355Z,19.60
2019-01-27T23:12:46.859Z,19.40
2019-01-27T23:15:18.340Z,19.00
2019-01-27T23:17:49.855Z,18.70
2019-01-27T23:20:21.308Z,18.60
2019-01-27T23:22:52.780Z,18.60
2019-01-27T23:25:24.221Z,19.00
2019-01-27T23:27:57.297Z,18.90
2019-01-27T23:30:28.775Z,18.80
2019-01-27T23:33:00.208Z,18.40
2019-01-27T23:35:32.721Z,18.40
2019-01-27T23:38:04.175Z,18.50
2019-01-27T23:40:35.651Z,18.70
2019-01-27T23:43:07.383Z,18.50
2019-01-27T23:45:38.891Z,18.30
2019-01-27T23:48:13.124Z,18.20
2019-01-27T23:50:44.700Z,18.10
2019-01-27T23:53:16.180Z,17.90
2019-01-27T23:55:47.958Z,17.80
2019-01-27T23:58:19.671Z,17.80
